Time;durP1;ratioP1;P1;durP2;ratioP2;P2;SDS_P1;SDS_P2;PMS_P1;PMS_P2;Temp;Humidity;BMP_temperature;BMP_pressure;BME280_temperature;BME280_humidity;BME280_pressure;Samples;Min_cycle;Max_cycle;Signal;HPM_P1;HPM_P2
2021/03/17 00:00:44;;;;;;;0.70;0.70;;;9.10;30.00;;;;;;4989597;28;20074;-73
2021/03/17 00:03:11;;;;;;;0.28;0.28;;;9.00;30.30;;;;;;4965820;28;20617;-74
2021/03/17 00:05:39;;;;;;;0.38;0.38;;;9.00;30.40;;;;;;4983187;28;20029;-73
2021/03/17 00:08:05;;;;;;;0.30;0.30;;;8.90;30.40;;;;;;4989203;28;20043;-73
2021/03/17 00:10:34;;;;;;;0.80;0.50;;;8.90;30.70;;;;;;4958838;28;20480;-74
2021/03/17 00:13:00;;;;;;;1.05;0.85;;;8.90;30.70;;;;;;4970230;28;20026;-74
2021/03/17 00:15:29;;;;;;;0.30;0.30;;;8.80;30.70;;;;;;4970137;28;20031;-73
2021/03/17 00:17:55;;;;;;;0.88;0.40;;;8.70;31.80;;;;;;4970145;28;20058;-74
2021/03/17 00:20:24;;;;;;;0.50;0.50;;;8.60;32.30;;;;;;4977730;28;20438;-73
2021/03/17 00:22:50;;;;;;;0.60;0.60;;;8.60;32.40;;;;;;4992835;28;20026;-73
2021/03/17 00:25:23;;;;;;;1.10;0.57;;;8.60;32.50;;;;;;4994003;28;20044;-73
2021/03/17 00:27:49;;;;;;;0.82;0.82;;;8.40;32.40;;;;;;4989433;28;20030;-73
2021/03/17 00:30:16;;;;;;;0.70;0.70;;;8.30;32.70;;;;;;4996700;28;20739;-79
2021/03/17 00:32:41;;;;;;;0.50;0.50;;;8.30;32.80;;;;;;4996612;28;20029;-78
2021/03/17 00:35:08;;;;;;;0.60;0.60;;;8.20;33.40;;;;;;4978227;28;20030;-78
2021/03/17 00:37:33;;;;;;;0.82;0.60;;;8.20;33.20;;;;;;4976954;28;20027;-78
2021/03/17 00:39:59;;;;;;;0.50;0.50;;;8.20;32.80;;;;;;4977027;28;20081;-78
2021/03/17 00:42:25;;;;;;;0.55;0.55;;;8.10;33.10;;;;;;4959664;28;20030;-78
2021/03/17 00:44:51;;;;;;;0.30;0.30;;;8.10;32.90;;;;;;4980023;28;20488;-78
2021/03/17 00:47:16;;;;;;;0.50;0.50;;;8.20;32.20;;;;;;4986888;28;20034;-78
2021/03/17 00:49:42;;;;;;;0.32;0.32;;;8.20;32.40;;;;;;4996225;28;20027;-78
2021/03/17 00:52:08;;;;;;;0.50;0.50;;;8.30;32.40;;;;;;4996387;28;20028;-78
2021/03/17 00:54:34;;;;;;;0.40;0.40;;;8.20;32.40;;;;;;4996294;28;20029;-78
2021/03/17 00:56:59;;;;;;;0.38;0.38;;;8.10;32.80;;;;;;4978674;28;20026;-78
2021/03/17 00:59:25;;;;;;;0.55;0.55;;;8.10;33.30;;;;;;4996041;28;20444;-79
2021/03/17 01:01:51;;;;;;;0.60;0.60;;;8.20;33.40;;;;;;4979110;28;20122;-77
2021/03/17 01:04:16;;;;;;;0.60;0.60;;;8.20;33.50;;;;;;4975651;28;20022;-73
2021/03/17 01:06:42;;;;;;;0.50;0.50;;;8.10;33.70;;;;;;4957563;28;20078;-73
2021/03/17 01:09:08;;;;;;;0.40;0.32;;;8.10;34.40;;;;;;4974622;28;20025;-73
2021/03/17 01:11:33;;;;;;;0.40;0.40;;;8.10;34.20;;;;;;4974853;28;20019;-73
2021/03/17 01:13:59;;;;;;;0.70;0.70;;;8.00;35.10;;;;;;4974850;28;20027;-73
2021/03/17 01:16:25;;;;;;;0.40;0.40;;;7.90;34.70;;;;;;4974691;28;20023;-73
2021/03/17 01:18:50;;;;;;;1.00;0.50;;;7.80;34.60;;;;;;4957115;28;20026;-73
2021/03/17 01:21:16;;;;;;;0.47;0.47;;;7.80;35.20;;;;;;4975931;28;20082;-73
2021/03/17 01:23:42;;;;;;;0.40;0.40;;;7.70;35.50;;;;;;4975952;28;20389;-73
2021/03/17 01:26:08;;;;;;;0.60;0.60;;;7.70;36.20;;;;;;4975852;28;20027;-73
2021/03/17 01:28:33;;;;;;;0.50;0.50;;;7.80;35.70;;;;;;4958377;28;20026;-73
2021/03/17 01:30:59;;;;;;;0.40;0.40;;;7.70;35.30;;;;;;4975865;28;20034;-73
2021/03/17 01:33:27;;;;;;;0.40;0.40;;;7.70;35.40;;;;;;4990302;28;20034;-73
2021/03/17 01:35:53;;;;;;;0.30;0.30;;;7.60;35.30;;;;;;4975554;28;20023;-73
2021/03/17 01:38:19;;;;;;;0.57;0.43;;;7.60;35.10;;;;;;4957611;28;20019;-73
2021/03/17 01:40:46;;;;;;;0.45;0.45;;;7.60;35.20;;;;;;4975743;28;20098;-73
2021/03/17 01:43:13;;;;;;;0.32;0.32;;;7.60;34.90;;;;;;4975474;28;20030;-73
2021/03/17 01:45:41;;;;;;;0.40;0.40;;;7.60;34.60;;;;;;4986496;28;20026;-73
2021/03/17 01:48:07;;;;;;;0.55;0.55;;;7.60;34.80;;;;;;4975684;28;20021;-73
2021/03/17 01:50:37;;;;;;;0.30;0.30;;;7.60;34.90;;;;;;4975561;28;20022;-73
2021/03/17 01:53:33;;;;;;;0.35;0.30;;;7.60;34.60;;;;;;4974184;28;20384;-73
2021/03/17 01:55:59;;;;;;;0.30;0.30;;;7.70;34.20;;;;;;4975353;28;20376;-73
2021/03/17 01:58:26;;;;;;;0.38;0.38;;;7.70;34.00;;;;;;4975012;28;20102;-73
2021/03/17 02:00:52;;;;;;;0.40;0.40;;;7.70;33.60;;;;;;4973867;28;20143;-73
2021/03/17 02:03:19;;;;;;;0.40;0.40;;;7.70;33.80;;;;;;4966255;28;20110;-73
2021/03/17 02:05:48;;;;;;;1.90;0.40;;;7.70;34.00;;;;;;4975201;28;20492;-73
2021/03/17 02:08:17;;;;;;;0.40;0.40;;;7.70;33.70;;;;;;4974945;28;20086;-73
2021/03/17 02:10:43;;;;;;;0.50;0.45;;;7.80;33.70;;;;;;4974924;28;20553;-73
2021/03/17 02:13:52;;;;;;;0.40;0.40;;;7.80;34.20;;;;;;4975130;28;20057;-73
2021/03/17 02:16:20;;;;;;;0.30;0.30;;;7.70;34.40;;;;;;4975048;28;20472;-73
2021/03/17 02:19:02;;;;;;;0.30;0.30;;;7.70;33.80;;;;;;4974853;28;20692;-73
2021/03/17 02:21:56;;;;;;;0.30;0.30;;;7.60;34.00;;;;;;4974962;28;20046;-73
2021/03/17 02:24:49;;;;;;;0.35;0.35;;;7.60;34.00;;;;;;4974811;28;20057;-73
2021/03/17 02:27:47;;;;;;;0.25;0.25;;;7.60;33.60;;;;;;4974759;28;20054;-73
2021/03/17 02:30:38;;;;;;;0.77;0.40;;;7.70;34.20;;;;;;4961822;28;20043;-73
2021/03/17 02:33:25;;;;;;;0.50;0.50;;;7.60;35.00;;;;;;4967859;28;20053;-73
2021/03/17 02:35:57;;;;;;;0.30;0.30;;;7.60;34.90;;;;;;4957046;28;20062;-73
2021/03/17 02:38:24;;;;;;;0.40;0.40;;;7.50;35.40;;;;;;4975392;28;20077;-73
2021/03/17 02:40:53;;;;;;;1.55;0.47;;;7.50;34.70;;;;;;4974600;28;20106;-73
2021/03/17 02:43:25;;;;;;;0.38;0.38;;;7.50;34.60;;;;;;4957139;28;20089;-73
2021/03/17 02:45:58;;;;;;;0.40;0.40;;;7.50;34.40;;;;;;4974529;28;20027;-73
2021/03/17 02:48:28;;;;;;;0.30;0.30;;;7.50;34.30;;;;;;4974232;28;20369;-73
2021/03/17 02:50:56;;;;;;;0.55;0.38;;;7.50;34.50;;;;;;4976555;28;20483;-73
2021/03/17 02:53:26;;;;;;;0.32;0.30;;;7.50;34.60;;;;;;4976157;28;20022;-73
2021/03/17 02:55:59;;;;;;;0.30;0.30;;;7.40;34.90;;;;;;4993650;28;20069;-73
2021/03/17 02:58:26;;;;;;;0.47;0.45;;;7.40;34.90;;;;;;4993589;28;20026;-73
2021/03/17 03:00:53;;;;;;;0.30;0.30;;;7.40;35.00;;;;;;4981264;28;20071;-73
2021/03/17 03:03:20;;;;;;;0.38;0.38;;;7.30;35.80;;;;;;4974087;28;20033;-73
2021/03/17 03:05:49;;;;;;;0.30;0.28;;;7.30;35.80;;;;;;4974215;28;20051;-73
2021/03/17 03:08:16;;;;;;;0.98;0.40;;;7.30;36.10;;;;;;4956505;28;20532;-73
2021/03/17 03:10:44;;;;;;;0.32;0.32;;;7.20;36.20;;;;;;4956651;28;20085;-73
2021/03/17 03:13:10;;;;;;;0.47;0.47;;;7.30;35.60;;;;;;4956677;28;20110;-73
2021/03/17 03:15:36;;;;;;;0.40;0.32;;;7.30;35.50;;;;;;4974114;28;20049;-73
2021/03/17 03:18:05;;;;;;;0.45;0.45;;;7.20;35.70;;;;;;4973578;28;20354;-73
2021/03/17 03:20:34;;;;;;;0.40;0.40;;;7.30;36.20;;;;;;4973956;28;20462;-73
2021/03/17 03:23:00;;;;;;;0.50;0.50;;;7.30;36.40;;;;;;4973842;28;20069;-73
2021/03/17 03:25:26;;;;;;;0.30;0.30;;;7.20;36.40;;;;;;4956533;28;20478;-73
2021/03/17 03:27:54;;;;;;;0.40;0.40;;;7.20;36.60;;;;;;4973783;28;20026;-73
2021/03/17 03:30:26;;;;;;;0.43;0.43;;;7.10;36.80;;;;;;4973870;28;20031;-73
2021/03/17 03:32:53;;;;;;;2.10;0.52;;;7.10;36.80;;;;;;4973946;28;20027;-73
2021/03/17 03:35:20;;;;;;;0.30;0.30;;;7.10;36.70;;;;;;4973894;28;20026;-73
2021/03/17 03:37:46;;;;;;;0.47;0.47;;;7.10;36.80;;;;;;4973575;28;20035;-73
2021/03/17 03:40:18;;;;;;;0.30;0.30;;;7.20;36.40;;;;;;4973678;28;20388;-73
2021/03/17 03:42:45;;;;;;;0.40;0.40;;;7.20;36.20;;;;;;4973625;28;20023;-73
2021/03/17 03:45:14;;;;;;;0.40;0.40;;;7.10;36.10;;;;;;4973702;28;20019;-73
2021/03/17 03:47:40;;;;;;;0.40;0.40;;;7.10;35.80;;;;;;4956349;28;20133;-73
2021/03/17 03:50:09;;;;;;;0.30;0.30;;;7.20;35.10;;;;;;4973710;28;20469;-73
2021/03/17 03:52:53;;;;;;;1.77;0.40;;;7.20;35.10;;;;;;4973692;28;20484;-73
2021/03/17 03:55:28;;;;;;;0.55;0.30;;;7.20;35.40;;;;;;4973728;28;20030;-73
2021/03/17 03:57:57;;;;;;;0.50;0.50;;;7.10;35.70;;;;;;4957058;28;20061;-73
2021/03/17 04:00:26;;;;;;;1.15;1.05;;;7.10;35.70;;;;;;4974906;28;20082;-73
2021/03/17 04:02:55;;;;;;;0.40;0.40;;;7.20;36.50;;;;;;4977474;28;20350;-73
2021/03/17 04:05:28;;;;;;;0.50;0.50;;;7.10;36.60;;;;;;4977448;28;20029;-73
2021/03/17 04:07:55;;;;;;;0.50;0.50;;;7.00;36.90;;;;;;4978152;28;20026;-74
2021/03/17 04:10:25;;;;;;;0.30;0.30;;;7.00;37.00;;;;;;4977339;28;20039;-73
2021/03/17 04:12:55;;;;;;;0.30;0.30;;;7.00;36.50;;;;;;4978379;28;20102;-74
2021/03/17 04:15:20;;;;;;;0.50;0.50;;;7.00;36.30;;;;;;4987950;28;20042;-73
2021/03/17 04:17:58;;;;;;;0.52;0.52;;;7.00;36.80;;;;;;4977161;28;20039;-73
2021/03/17 04:20:29;;;;;;;0.70;0.70;;;6.90;37.30;;;;;;4977093;28;20115;-73
2021/03/17 04:22:56;;;;;;;0.43;0.40;;;6.90;37.70;;;;;;4977263;28;20027;-73
2021/03/17 04:25:23;;;;;;;0.60;0.60;;;6.90;37.80;;;;;;4977148;28;20035;-74
2021/03/17 04:27:51;;;;;;;1.25;0.57;;;6.90;37.20;;;;;;4977022;28;20085;-73
2021/03/17 04:30:19;;;;;;;1.63;0.90;;;6.90;36.80;;;;;;4976852;28;20035;-73
2021/03/17 04:32:47;;;;;;;0.63;0.63;;;6.90;37.00;;;;;;4976744;28;20038;-74
2021/03/17 04:35:14;;;;;;;0.50;0.50;;;6.80;37.60;;;;;;4976903;28;20030;-73
2021/03/17 04:37:43;;;;;;;0.90;0.60;;;6.70;38.20;;;;;;4976487;28;20035;-73
2021/03/17 04:40:10;;;;;;;1.52;0.50;;;6.70;38.20;;;;;;4987429;28;20112;-73
2021/03/17 04:42:39;;;;;;;0.52;0.52;;;6.70;38.60;;;;;;4996149;28;20030;-73
2021/03/17 04:45:08;;;;;;;0.50;0.50;;;6.70;38.80;;;;;;4996076;28;20022;-73
2021/03/17 04:47:34;;;;;;;0.50;0.50;;;6.60;38.80;;;;;;4996101;28;20026;-74
2021/03/17 04:50:01;;;;;;;0.55;0.43;;;6.60;38.60;;;;;;4978623;28;20583;-73
2021/03/17 04:52:28;;;;;;;0.40;0.40;;;6.70;38.10;;;;;;4996153;28;20388;-74
2021/03/17 04:54:54;;;;;;;0.50;0.50;;;6.70;37.90;;;;;;4996255;28;20049;-73
2021/03/17 04:57:23;;;;;;;0.50;0.30;;;6.60;37.60;;;;;;4995822;28;20030;-72
2021/03/17 04:59:50;;;;;;;0.38;0.38;;;6.70;37.70;;;;;;4978098;28;20058;-73
2021/03/17 05:02:25;;;;;;;0.30;0.30;;;6.70;38.00;;;;;;4978370;28;20045;-73
2021/03/17 05:04:53;;;;;;;1.67;0.70;;;6.60;37.60;;;;;;4994863;28;20032;-74
2021/03/17 05:07:20;;;;;;;2.55;0.52;;;6.60;37.50;;;;;;4985187;28;20031;-73
2021/03/17 05:09:47;;;;;;;0.50;0.50;;;6.60;37.50;;;;;;4958797;28;20489;-73
2021/03/17 05:12:15;;;;;;;0.30;0.30;;;6.60;37.20;;;;;;4957227;28;20037;-74
2021/03/17 05:14:43;;;;;;;0.57;0.52;;;6.60;37.20;;;;;;4975934;28;20022;-73
2021/03/17 05:17:10;;;;;;;0.50;0.40;;;6.50;36.90;;;;;;4958183;28;20031;-74
2021/03/17 05:19:38;;;;;;;0.65;0.20;;;6.50;37.10;;;;;;4958519;28;20022;-74
2021/03/17 05:22:05;;;;;;;0.40;0.40;;;6.50;36.90;;;;;;4959972;28;20027;-73
2021/03/17 05:24:32;;;;;;;0.40;0.40;;;6.50;37.10;;;;;;4958708;28;20102;-73
2021/03/17 05:27:02;;;;;;;0.50;0.50;;;6.50;37.00;;;;;;4958545;28;20034;-73
2021/03/17 05:29:28;;;;;;;0.43;0.43;;;6.50;37.10;;;;;;4975725;28;20106;-73
2021/03/17 05:31:55;;;;;;;0.65;0.50;;;6.50;37.30;;;;;;4958152;28;20026;-73
2021/03/17 05:34:21;;;;;;;1.20;0.57;;;6.50;37.50;;;;;;4958300;28;20027;-73
2021/03/17 05:36:47;;;;;;;0.32;0.32;;;6.50;37.60;;;;;;4986926;28;20113;-73
2021/03/17 05:39:14;;;;;;;0.30;0.30;;;6.50;37.50;;;;;;4974976;28;20473;-73
2021/03/17 05:41:41;;;;;;;0.28;0.28;;;6.50;37.40;;;;;;4975178;28;20485;-73
2021/03/17 05:44:08;;;;;;;0.30;0.30;;;6.50;37.70;;;;;;4975197;28;20049;-72
2021/03/17 05:46:34;;;;;;;0.43;0.43;;;6.50;37.40;;;;;;4975124;28;20069;-73
2021/03/17 05:49:00;;;;;;;0.70;0.52;;;6.50;37.30;;;;;;4975166;28;20047;-73
2021/03/17 05:51:26;;;;;;;0.70;0.70;;;6.50;37.40;;;;;;4974017;28;20027;-73
2021/03/17 05:53:52;;;;;;;1.15;0.60;;;6.50;37.20;;;;;;4975164;28;20724;-73
2021/03/17 05:56:18;;;;;;;0.63;0.60;;;6.50;37.00;;;;;;4957972;28;20115;-75
2021/03/17 05:58:45;;;;;;;0.52;0.52;;;6.50;37.30;;;;;;4975259;28;20405;-75
2021/03/17 06:01:13;;;;;;;0.50;0.50;;;6.50;37.40;;;;;;4957888;28;20147;-75
2021/03/17 06:03:39;;;;;;;0.50;0.50;;;6.50;37.30;;;;;;4957871;28;20029;-75
2021/03/17 06:06:08;;;;;;;1.20;1.02;;;6.40;37.30;;;;;;4975146;28;20444;-75
2021/03/17 06:08:45;;;;;;;2.92;0.50;;;6.40;37.20;;;;;;4975160;28;20185;-75
2021/03/17 06:11:15;;;;;;;1.23;0.50;;;6.40;37.10;;;;;;4974973;28;20030;-73
2021/03/17 06:13:47;;;;;;;0.60;0.60;;;6.50;37.10;;;;;;4974838;28;20462;-74
2021/03/17 06:16:15;;;;;;;0.40;0.40;;;6.50;36.70;;;;;;4975146;28;20029;-73
2021/03/17 06:18:44;;;;;;;1.50;1.13;;;6.50;36.60;;;;;;4974661;28;20058;-74
2021/03/17 06:21:17;;;;;;;0.77;0.77;;;6.60;36.50;;;;;;4957583;28;20019;-74
2021/03/17 06:23:44;;;;;;;1.25;0.70;;;6.60;36.70;;;;;;4957060;28;20030;-73
2021/03/17 06:26:10;;;;;;;0.85;0.60;;;6.70;36.50;;;;;;4974891;28;20094;-74
2021/03/17 06:28:35;;;;;;;6.53;1.13;;;6.80;36.60;;;;;;4961991;28;20172;-74
2021/03/17 06:31:03;;;;;;;2.28;0.65;;;6.90;36.50;;;;;;4993638;28;20037;-74
2021/03/17 06:33:29;;;;;;;0.60;0.60;;;6.90;36.90;;;;;;4976786;28;20037;-74
2021/03/17 06:36:22;;;;;;;3.13;0.85;;;7.00;36.20;;;;;;4993943;28;20030;-74
2021/03/17 06:38:49;;;;;;;1.23;0.77;;;7.00;36.10;;;;;;4976341;28;20117;-74
2021/03/17 06:41:16;;;;;;;1.23;0.60;;;7.00;36.10;;;;;;4955391;29;20019;-74
2021/03/17 06:43:44;;;;;;;2.60;0.50;;;7.10;35.90;;;;;;4954889;28;20172;-74
2021/03/17 06:46:20;;;;;;;0.68;0.68;;;7.20;36.20;;;;;;4979602;28;20023;-73
2021/03/17 06:48:46;;;;;;;9.85;0.90;;;7.30;36.10;;;;;;4956950;28;20033;-74
2021/03/17 06:51:20;;;;;;;1.45;0.95;;;7.30;36.10;;;;;;4974114;28;20037;-74
2021/03/17 06:53:49;;;;;;;1.00;0.90;;;7.40;35.90;;;;;;4974420;28;20476;-74
2021/03/17 06:56:31;;;;;;;0.85;0.80;;;7.40;35.90;;;;;;4972757;28;20035;-74
2021/03/17 06:59:07;;;;;;;1.75;0.70;;;7.40;35.90;;;;;;4974218;28;20058;-74
2021/03/17 07:01:36;;;;;;;2.60;0.65;;;7.50;35.70;;;;;;4983059;28;20558;-74
2021/03/17 07:04:09;;;;;;;0.88;0.57;;;7.60;35.60;;;;;;4974146;28;20516;-75
2021/03/17 07:06:38;;;;;;;1.23;1.00;;;7.60;36.00;;;;;;4974175;28;20030;-74
2021/03/17 07:09:27;;;;;;;0.47;0.47;;;7.70;35.90;;;;;;4979084;28;20023;-74
2021/03/17 07:12:05;;;;;;;0.88;0.88;;;7.70;36.00;;;;;;4974183;28;20019;-73
2021/03/17 07:14:38;;;;;;;3.17;0.80;;;7.80;35.70;;;;;;4974064;28;20109;-74
2021/03/17 07:17:28;;;;;;;4.55;0.70;;;7.90;35.30;;;;;;4973956;28;20114;-74
2021/03/17 07:19:53;;;;;;;0.68;0.68;;;8.00;35.70;;;;;;4974168;28;20110;-74
2021/03/17 07:22:20;;;;;;;1.73;0.65;;;8.10;35.70;;;;;;4974107;28;20110;-73
2021/03/17 07:24:52;;;;;;;5.10;1.00;;;8.10;35.70;;;;;;4956441;28;20026;-73
2021/03/17 07:27:22;;;;;;;3.72;0.90;;;8.20;36.00;;;;;;4973381;28;20027;-74
2021/03/17 07:30:19;;;;;;;2.42;1.40;;;8.20;35.60;;;;;;4956131;28;20031;-74
2021/03/17 07:32:57;;;;;;;3.35;1.20;;;8.30;35.40;;;;;;4973029;28;20034;-73
2021/03/17 07:35:35;;;;;;;1.50;1.13;;;8.40;35.60;;;;;;4954482;28;20141;-73
2021/03/17 07:38:05;;;;;;;0.85;0.82;;;8.40;35.90;;;;;;4971955;28;20039;-74
2021/03/17 07:40:31;;;;;;;1.10;0.88;;;8.50;35.50;;;;;;4954992;28;20127;-73
2021/03/17 07:43:00;;;;;;;1.33;0.80;;;8.50;35.40;;;;;;4954998;28;20035;-74
2021/03/17 07:45:27;;;;;;;1.42;1.20;;;8.60;35.30;;;;;;4972226;28;20031;-73
2021/03/17 07:47:54;;;;;;;2.10;1.30;;;8.60;36.00;;;;;;4973440;28;20068;-74
2021/03/17 07:50:20;;;;;;;1.80;1.05;;;8.70;36.30;;;;;;4976426;28;20037;-73
2021/03/17 07:52:47;;;;;;;2.72;1.00;;;8.80;36.30;;;;;;4971307;28;20130;-74
2021/03/17 07:55:14;;;;;;;1.73;1.13;;;8.80;35.10;;;;;;4967996;28;20042;-73
2021/03/17 07:57:39;;;;;;;4.20;1.70;;;9.00;34.80;;;;;;4969631;28;20121;-73
2021/03/17 08:00:06;;;;;;;3.78;1.45;;;9.00;33.90;;;;;;4971147;28;20125;-79
2021/03/17 08:02:32;;;;;;;3.25;0.98;;;9.10;33.20;;;;;;4962873;28;20117;-78
2021/03/17 08:04:59;;;;;;;2.13;0.82;;;9.10;32.70;;;;;;4964086;28;20023;-74
2021/03/17 08:07:25;;;;;;;3.25;0.85;;;9.10;32.50;;;;;;4952906;28;20039;-73
2021/03/17 08:09:52;;;;;;;1.05;0.95;;;9.30;31.30;;;;;;4972375;28;20045;-73
2021/03/17 08:12:20;;;;;;;1.88;0.70;;;9.30;31.20;;;;;;4952248;28;20073;-73
2021/03/17 08:14:46;;;;;;;0.65;0.65;;;9.30;30.10;;;;;;4974008;28;20030;-73
2021/03/17 08:17:13;;;;;;;0.85;0.65;;;9.40;29.90;;;;;;4952146;28;20082;-73
2021/03/17 08:19:39;;;;;;;1.15;0.80;;;9.40;30.60;;;;;;4974047;28;20026;-73
2021/03/17 08:22:06;;;;;;;0.40;0.40;;;9.40;31.90;;;;;;4975335;28;20423;-73
2021/03/17 08:24:38;;;;;;;1.10;0.90;;;9.40;30.80;;;;;;4960762;28;20027;-74
2021/03/17 08:27:07;;;;;;;5.18;0.88;;;9.50;32.60;;;;;;4953324;28;20043;-73
2021/03/17 08:29:43;;;;;;;2.85;1.05;;;9.70;32.90;;;;;;4949059;28;20035;-73
2021/03/17 08:32:10;;;;;;;0.82;0.82;;;9.90;34.80;;;;;;4970975;28;20113;-73
2021/03/17 08:34:38;;;;;;;0.80;0.80;;;9.90;34.60;;;;;;4954176;28;20035;-73
2021/03/17 08:37:11;;;;;;;2.38;0.93;;;9.90;33.10;;;;;;4953799;28;20050;-73
2021/03/17 08:39:36;;;;;;;1.25;0.70;;;9.90;32.10;;;;;;4977314;28;20030;-79
2021/03/17 08:42:04;;;;;;;4.68;0.75;;;9.90;32.20;;;;;;4972202;28;20413;-79
2021/03/17 08:44:31;;;;;;;1.80;0.98;;;10.00;31.70;;;;;;4978589;28;20033;-80
2021/03/17 08:47:14;;;;;;;3.80;0.70;;;10.10;30.70;;;;;;4963980;28;20045;-80
2021/03/17 08:49:40;;;;;;;1.27;0.50;;;10.10;31.60;;;;;;4977230;28;20085;-79
2021/03/17 08:52:15;;;;;;;2.30;0.80;;;10.10;32.10;;;;;;4962696;28;20077;-73
2021/03/17 08:54:46;;;;;;;3.95;0.70;;;10.10;30.90;;;;;;4978327;28;20034;-73
2021/03/17 08:57:16;;;;;;;1.23;1.00;;;10.20;32.30;;;;;;4981929;28;20394;-81
2021/03/17 08:59:44;;;;;;;1.77;0.50;;;10.30;30.80;;;;;;4959417;28;20080;-73
2021/03/17 09:02:17;;;;;;;0.40;0.40;;;10.30;29.70;;;;;;4980076;28;20110;-73
2021/03/17 09:04:45;;;;;;;3.13;1.13;;;10.30;30.30;;;;;;4963620;28;20027;-73
2021/03/17 09:07:11;;;;;;;1.42;0.47;;;10.40;31.10;;;;;;4978826;28;20077;-73
2021/03/17 09:10:08;;;;;;;1.15;0.98;;;10.50;29.20;;;;;;4977052;28;20038;-73
2021/03/17 09:12:34;;;;;;;2.22;0.70;;;10.50;29.60;;;;;;4961273;28;20170;-73
2021/03/17 09:15:26;;;;;;;1.33;0.60;;;10.60;28.90;;;;;;4974990;28;20110;-80
2021/03/17 09:17:58;;;;;;;1.10;1.00;;;10.60;29.80;;;;;;4972007;28;20039;-81
2021/03/17 09:20:30;;;;;;;1.88;0.90;;;10.70;29.40;;;;;;4980929;28;20061;-80
2021/03/17 09:23:02;;;;;;;0.80;0.80;;;10.80;29.70;;;;;;4974812;28;20500;-80
2021/03/17 09:25:34;;;;;;;3.22;1.00;;;10.90;30.00;;;;;;4951700;28;20027;-79
2021/03/17 09:28:11;;;;;;;3.03;0.57;;;11.00;29.90;;;;;;4972380;28;20035;-80
2021/03/17 09:30:48;;;;;;;1.08;0.60;;;11.00;28.70;;;;;;4973078;28;20031;-80
2021/03/17 09:33:21;;;;;;;3.67;0.70;;;11.10;29.60;;;;;;4957141;28;20038;-80
2021/03/17 09:35:59;;;;;;;3.60;0.68;;;11.00;28.70;;;;;;4979485;28;20067;-80
2021/03/17 09:38:28;;;;;;;0.77;0.50;;;11.30;30.00;;;;;;4971675;28;20088;-80
2021/03/17 09:41:01;;;;;;;0.50;0.40;;;11.40;28.60;;;;;;4961769;28;20073;-80
2021/03/17 09:43:34;;;;;;;1.58;0.80;;;11.30;28.40;;;;;;4973582;28;20065;-80
2021/03/17 09:46:20;;;;;;;0.63;0.60;;;11.40;26.20;;;;;;4956747;28;20029;-80
2021/03/17 09:48:48;;;;;;;0.38;0.38;;;11.40;25.60;;;;;;4974827;28;20023;-80
2021/03/17 09:51:19;;;;;;;0.50;0.50;;;11.40;25.40;;;;;;4958633;28;20023;-80
2021/03/17 09:53:47;;;;;;;0.40;0.40;;;11.40;26.60;;;;;;4954055;28;20027;-81
2021/03/17 09:56:13;;;;;;;0.70;0.70;;;11.40;25.20;;;;;;4973688;28;20037;-80
2021/03/17 09:58:39;;;;;;;8.48;0.80;;;11.40;25.10;;;;;;4962787;28;20092;-73
2021/03/17 10:01:13;;;;;;;0.57;0.57;;;11.40;24.50;;;;;;4979904;28;20055;-80
2021/03/17 10:03:49;;;;;;;0.50;0.50;;;11.50;25.60;;;;;;4961564;28;20416;-80
2021/03/17 10:06:14;;;;;;;1.08;0.75;;;11.60;25.90;;;;;;4971650;28;20022;-80
2021/03/17 10:08:41;;;;;;;0.80;0.80;;;11.60;25.50;;;;;;4979208;28;20114;-80
2021/03/17 10:11:14;;;;;;;0.68;0.50;;;11.60;25.30;;;;;;4951299;28;20042;-73
2021/03/17 10:13:39;;;;;;;8.38;0.77;;;11.50;25.60;;;;;;4975966;28;20034;-81
2021/03/17 10:16:07;;;;;;;0.50;0.50;;;11.50;25.50;;;;;;4969376;28;20022;-80
2021/03/17 10:18:32;;;;;;;0.47;0.47;;;11.50;25.60;;;;;;4977094;28;20038;-80
2021/03/17 10:20:58;;;;;;;4.25;0.50;;;11.50;26.70;;;;;;4978470;28;20030;-80
2021/03/17 10:23:24;;;;;;;1.20;0.60;;;11.50;27.20;;;;;;4972317;28;20122;-79
2021/03/17 10:25:50;;;;;;;0.70;0.70;;;11.50;27.40;;;;;;4976033;28;20437;-79
2021/03/17 10:28:17;;;;;;;0.73;0.73;;;11.60;27.70;;;;;;4961109;28;20035;-78
2021/03/17 10:30:46;;;;;;;1.08;0.70;;;11.60;27.00;;;;;;4957712;28;20037;-79
2021/03/17 10:33:26;;;;;;;5.95;0.75;;;11.60;27.60;;;;;;4970952;28;20717;-79
2021/03/17 10:35:52;;;;;;;1.08;0.52;;;11.60;27.10;;;;;;4961815;28;20041;-78
2021/03/17 10:38:18;;;;;;;3.22;0.80;;;11.70;27.20;;;;;;4972504;28;20073;-78
2021/03/17 10:40:44;;;;;;;1.27;0.63;;;12.10;28.90;;;;;;4952645;28;20689;-77
2021/03/17 10:43:12;;;;;;;0.70;0.70;;;12.10;26.90;;;;;;4975430;28;20019;-79
2021/03/17 10:46:02;;;;;;;0.60;0.60;;;12.20;27.00;;;;;;4980929;28;20102;-78
2021/03/17 10:48:29;;;;;;;0.70;0.70;;;12.40;26.50;;;;;;4958612;28;20393;-80
2021/03/17 10:50:57;;;;;;;8.13;1.17;;;12.40;25.90;;;;;;4979357;28;20050;-80
2021/03/17 10:53:26;;;;;;;0.63;0.63;;;12.40;25.80;;;;;;4968018;28;20077;-81
2021/03/17 10:55:58;;;;;;;0.90;0.90;;;12.50;25.90;;;;;;4970568;28;20766;-80
2021/03/17 10:58:39;;;;;;;0.98;0.80;;;12.40;26.30;;;;;;4970502;28;20022;-79
2021/03/17 11:01:04;;;;;;;0.80;0.80;;;12.50;26.00;;;;;;4956904;28;20050;-80
2021/03/17 11:03:32;;;;;;;1.15;0.75;;;12.50;25.50;;;;;;4969191;28;20517;-75
2021/03/17 11:06:20;;;;;;;3.28;0.70;;;12.60;25.00;;;;;;4966120;28;20061;-74
2021/03/17 11:09:03;;;;;;;1.08;0.80;;;12.80;26.50;;;;;;4948529;28;20035;-74
2021/03/17 11:11:33;;;;;;;0.95;0.70;;;13.00;25.50;;;;;;4967891;28;20038;-74
2021/03/17 11:13:59;;;;;;;1.17;1.13;;;12.90;24.20;;;;;;4960836;28;20066;-74
2021/03/17 11:16:37;;;;;;;0.90;0.90;;;12.90;24.00;;;;;;4970786;28;20040;-75
2021/03/17 11:19:11;;;;;;;5.68;1.63;;;12.90;23.90;;;;;;4954345;28;20036;-74
2021/03/17 11:21:39;;;;;;;1.83;1.58;;;13.00;24.90;;;;;;4947651;28;20035;-74
2021/03/17 11:24:19;;;;;;;1.88;1.67;;;13.10;24.90;;;;;;4948783;28;20122;-74
2021/03/17 11:26:45;;;;;;;5.50;1.63;;;13.20;25.50;;;;;;4953128;28;20022;-74
2021/03/17 11:29:18;;;;;;;2.15;1.00;;;13.20;24.60;;;;;;4977077;28;20022;-74
2021/03/17 11:31:46;;;;;;;0.63;0.63;;;13.30;25.00;;;;;;4970569;28;20023;-74
2021/03/17 11:34:13;;;;;;;1.65;0.75;;;13.40;25.40;;;;;;4948833;28;20944;-74
2021/03/17 11:36:40;;;;;;;0.90;0.82;;;13.50;25.00;;;;;;4968519;28;20023;-74
2021/03/17 11:39:09;;;;;;;1.42;1.00;;;13.60;25.40;;;;;;4974063;28;20030;-74
2021/03/17 11:41:37;;;;;;;0.75;0.68;;;13.60;24.90;;;;;;4967401;28;20023;-74
2021/03/17 11:44:04;;;;;;;1.30;0.68;;;13.70;23.90;;;;;;4968335;28;20057;-74
2021/03/17 11:46:30;;;;;;;1.42;0.70;;;13.60;23.60;;;;;;4963928;28;20142;-74
2021/03/17 11:48:56;;;;;;;0.60;0.60;;;13.70;23.70;;;;;;4976788;28;20477;-74
2021/03/17 11:51:23;;;;;;;0.85;0.80;;;13.80;23.50;;;;;;4975372;28;20025;-74
2021/03/17 11:53:49;;;;;;;0.68;0.65;;;13.80;23.60;;;;;;4971666;28;20030;-74
2021/03/17 11:56:16;;;;;;;1.08;0.60;;;13.80;24.40;;;;;;4954395;28;20513;-74
2021/03/17 11:58:42;;;;;;;0.52;0.52;;;13.90;24.90;;;;;;4956747;28;20026;-74
2021/03/17 12:01:08;;;;;;;0.75;0.75;;;14.10;24.20;;;;;;4961138;28;20050;-74
2021/03/17 12:03:34;;;;;;;1.95;0.50;;;14.00;23.40;;;;;;4954657;28;20027;-74
2021/03/17 12:06:00;;;;;;;0.70;0.70;;;14.10;23.30;;;;;;4949346;28;20046;-74
2021/03/17 12:08:27;;;;;;;0.95;0.95;;;14.40;24.80;;;;;;4949045;28;20046;-74
2021/03/17 12:10:53;;;;;;;1.90;0.77;;;14.20;23.80;;;;;;4953573;28;20038;-74
2021/03/17 12:13:19;;;;;;;1.50;0.90;;;14.20;24.10;;;;;;4958218;28;20039;-74
2021/03/17 12:15:46;;;;;;;3.72;0.80;;;14.20;23.20;;;;;;4964457;28;20558;-74
2021/03/17 12:18:12;;;;;;;0.68;0.60;;;14.30;23.90;;;;;;4949878;28;20071;-74
2021/03/17 12:20:39;;;;;;;1.08;0.70;;;14.40;24.50;;;;;;4956942;28;20023;-74
2021/03/17 12:23:05;;;;;;;2.15;0.63;;;14.40;24.00;;;;;;4957836;28;20058;-73
2021/03/17 12:25:30;;;;;;;0.75;0.70;;;14.40;24.00;;;;;;4954975;28;20058;-74
2021/03/17 12:27:57;;;;;;;0.82;0.77;;;14.60;24.10;;;;;;4952865;28;20046;-74
2021/03/17 12:30:23;;;;;;;1.20;0.55;;;14.70;24.50;;;;;;4955878;28;20027;-74
2021/03/17 12:32:51;;;;;;;2.35;0.68;;;14.90;24.70;;;;;;4965309;28;20534;-74
2021/03/17 12:35:19;;;;;;;0.90;0.80;;;14.90;23.00;;;;;;4957306;28;20070;-73
2021/03/17 12:37:47;;;;;;;0.70;0.70;;;15.00;23.60;;;;;;4961369;28;20035;-74
2021/03/17 12:40:20;;;;;;;1.00;0.70;;;15.10;23.90;;;;;;4956758;28;20047;-74
2021/03/17 12:42:46;;;;;;;2.85;1.88;;;15.00;24.30;;;;;;4960155;28;20425;-73
2021/03/17 12:45:15;;;;;;;2.20;1.40;;;15.00;23.70;;;;;;4956106;28;20059;-74
2021/03/17 12:47:42;;;;;;;1.10;1.10;;;14.80;23.30;;;;;;4956533;28;20015;-74
2021/03/17 12:50:10;;;;;;;1.08;1.08;;;14.80;23.40;;;;;;4949840;28;20050;-74
2021/03/17 12:52:36;;;;;;;1.23;1.13;;;14.60;22.90;;;;;;4952724;28;20039;-74
2021/03/17 12:55:04;;;;;;;3.92;1.33;;;14.50;22.70;;;;;;4957369;28;20110;-74
2021/03/17 12:57:30;;;;;;;1.55;0.88;;;14.60;23.30;;;;;;4945844;28;21293;-74
2021/03/17 12:59:57;;;;;;;1.50;0.70;;;14.60;23.20;;;;;;4955094;28;20472;-74
2021/03/17 13:02:24;;;;;;;4.65;1.80;;;14.80;23.60;;;;;;4922722;28;20557;-74
2021/03/17 13:04:50;;;;;;;0.90;0.90;;;14.90;23.60;;;;;;4928900;28;20031;-74